Time;durP1;ratioP1;P1;durP2;ratioP2;P2;SDS_P1;SDS_P2;PMS_P1;PMS_P2;Temp;Humidity;BMP_temperature;BMP_pressure;BME280_temperature;BME280_humidity;BME280_pressure;Samples;Min_cycle;Max_cycle;Signal;HPM_P1;HPM_P2
2022/07/12 00:00:51;;;;;;;1.83;1.50;;;16.20;99.90;;;;;;5054132;28;20288;-84
2022/07/12 00:03:20;;;;;;;2.17;1.38;;;16.20;99.90;;;;;;5054472;28;20244;-84
2022/07/12 00:05:49;;;;;;;1.23;1.13;;;16.20;99.90;;;;;;5054613;28;20231;-84
2022/07/12 00:08:17;;;;;;;1.63;1.52;;;16.20;99.90;;;;;;5054594;28;20245;-84
2022/07/12 00:10:45;;;;;;;1.25;1.20;;;16.20;99.90;;;;;;5053628;28;20209;-83
2022/07/12 00:13:15;;;;;;;1.65;1.15;;;16.20;99.90;;;;;;5054292;28;20284;-84
2022/07/12 00:15:43;;;;;;;1.60;1.35;;;16.30;99.90;;;;;;5053956;28;20205;-84
2022/07/12 00:18:12;;;;;;;2.10;1.60;;;16.30;99.90;;;;;;5054162;28;20217;-84
2022/07/12 00:20:42;;;;;;;1.30;1.20;;;16.30;99.90;;;;;;5053877;28;20286;-85
2022/07/12 00:23:10;;;;;;;1.10;1.10;;;16.30;99.90;;;;;;5054029;28;20222;-84
2022/07/12 00:25:39;;;;;;;1.90;1.42;;;16.30;99.90;;;;;;5053557;28;20205;-84
2022/07/12 00:28:08;;;;;;;1.23;1.13;;;16.30;99.90;;;;;;5053665;28;20206;-84
2022/07/12 00:30:36;;;;;;;1.75;1.60;;;16.30;99.90;;;;;;5053814;28;20205;-84
2022/07/12 00:33:05;;;;;;;2.10;1.55;;;16.30;99.90;;;;;;5053397;28;20221;-84
2022/07/12 00:35:33;;;;;;;1.27;1.20;;;16.30;99.90;;;;;;5053774;28;20206;-84
2022/07/12 00:38:03;;;;;;;1.80;1.35;;;16.30;99.90;;;;;;5053684;28;20283;-85
2022/07/12 00:40:31;;;;;;;1.10;1.10;;;16.30;99.90;;;;;;5053535;28;20208;-84
2022/07/12 00:43:00;;;;;;;4.07;1.30;;;16.30;99.90;;;;;;5053774;28;20240;-84
2022/07/12 00:45:28;;;;;;;1.05;1.05;;;16.30;99.90;;;;;;5053737;28;20205;-84
2022/07/12 00:47:57;;;;;;;1.70;1.60;;;16.30;99.90;;;;;;5053724;28;20232;-84
2022/07/12 00:50:25;;;;;;;1.42;1.33;;;16.30;99.90;;;;;;5052993;28;20264;-83
2022/07/12 00:52:56;;;;;;;1.48;1.38;;;16.30;99.90;;;;;;5053267;28;20226;-83
2022/07/12 00:55:26;;;;;;;1.45;1.35;;;16.30;99.90;;;;;;5052977;28;20217;-83
2022/07/12 00:57:54;;;;;;;1.63;1.38;;;16.20;99.90;;;;;;5052962;28;20236;-83
2022/07/12 01:00:24;;;;;;;1.80;1.58;;;16.20;99.90;;;;;;5053166;28;20405;-83
2022/07/12 01:02:55;;;;;;;1.73;1.63;;;16.20;99.90;;;;;;5052705;28;20217;-83
2022/07/12 01:05:24;;;;;;;2.10;1.90;;;16.20;99.90;;;;;;5053340;28;20198;-83
2022/07/12 01:07:54;;;;;;;1.90;1.80;;;16.10;99.90;;;;;;5053446;28;20244;-83
2022/07/12 01:10:23;;;;;;;3.38;2.20;;;16.10;99.90;;;;;;5053032;28;20240;-83
2022/07/12 01:12:53;;;;;;;1.73;1.63;;;16.10;99.90;;;;;;5053166;28;20230;-83
2022/07/12 01:15:22;;;;;;;1.40;1.30;;;16.00;99.90;;;;;;5053138;28;20201;-83
2022/07/12 01:17:51;;;;;;;2.28;1.48;;;16.00;99.90;;;;;;5053088;28;20217;-83
2022/07/12 01:20:21;;;;;;;1.15;1.10;;;16.00;99.90;;;;;;5052648;28;20198;-83
2022/07/12 01:22:54;;;;;;;1.63;1.50;;;16.00;99.90;;;;;;5052775;28;20221;-83
2022/07/12 01:25:23;;;;;;;1.33;1.23;;;16.00;99.90;;;;;;5052559;28;20271;-83
2022/07/12 01:27:52;;;;;;;1.00;1.00;;;16.00;99.90;;;;;;5052962;28;20197;-83
2022/07/12 01:30:21;;;;;;;1.42;1.33;;;16.00;99.90;;;;;;5052408;28;20257;-83
2022/07/12 01:32:51;;;;;;;1.30;1.20;;;16.00;99.90;;;;;;5052581;28;20255;-83
2022/07/12 01:35:21;;;;;;;1.15;1.13;;;16.00;99.90;;;;;;5052836;28;20211;-83
2022/07/12 01:37:50;;;;;;;1.45;1.38;;;16.00;99.90;;;;;;5052551;28;20205;-83
2022/07/12 01:40:20;;;;;;;3.45;1.13;;;16.00;99.90;;;;;;5052545;28;20289;-83
2022/07/12 01:42:51;;;;;;;1.42;1.40;;;16.00;99.90;;;;;;5052749;28;20210;-83
2022/07/12 01:45:20;;;;;;;1.17;1.17;;;15.90;99.90;;;;;;5053238;28;20202;-83
2022/07/12 01:47:48;;;;;;;1.77;1.67;;;15.90;99.90;;;;;;5052361;28;20240;-83
2022/07/12 01:50:17;;;;;;;1.52;1.42;;;15.90;99.90;;;;;;5052439;28;20228;-83
2022/07/12 01:52:46;;;;;;;5.28;1.80;;;15.90;99.90;;;;;;5052610;28;20297;-83
2022/07/12 01:55:14;;;;;;;1.85;1.75;;;16.00;99.90;;;;;;5052568;28;20202;-83
2022/07/12 01:57:45;;;;;;;2.60;1.58;;;15.90;99.90;;;;;;5052669;28;20206;-83
2022/07/12 02:00:14;;;;;;;1.60;1.50;;;15.90;99.90;;;;;;5052242;28;20202;-83
2022/07/12 02:02:45;;;;;;;1.50;1.40;;;15.90;99.90;;;;;;5052190;28;20213;-83
2022/07/12 02:05:13;;;;;;;1.83;1.73;;;15.90;99.90;;;;;;5052340;28;20202;-83
2022/07/12 02:07:42;;;;;;;1.58;1.48;;;15.90;99.90;;;;;;5053927;28;20252;-83
2022/07/12 02:10:11;;;;;;;1.42;1.15;;;15.90;99.90;;;;;;5056668;28;20217;-83
2022/07/12 02:12:39;;;;;;;1.40;1.33;;;16.00;99.90;;;;;;5056391;28;20297;-83
2022/07/12 02:15:10;;;;;;;1.23;1.20;;;16.00;99.90;;;;;;5056417;28;20263;-83
2022/07/12 02:17:38;;;;;;;1.13;1.13;;;16.00;99.90;;;;;;5056334;28;20209;-83
2022/07/12 02:20:10;;;;;;;1.85;1.63;;;16.00;99.90;;;;;;5055835;28;20202;-83
2022/07/12 02:22:39;;;;;;;1.40;1.30;;;16.00;99.90;;;;;;5056550;28;20217;-83
2022/07/12 02:25:08;;;;;;;1.27;1.17;;;16.00;99.90;;;;;;5056119;28;20240;-83
2022/07/12 02:27:36;;;;;;;1.05;0.98;;;16.00;99.90;;;;;;5055885;28;20229;-83
2022/07/12 02:30:06;;;;;;;1.65;1.55;;;16.00;99.90;;;;;;5055901;28;20313;-83
2022/07/12 02:32:36;;;;;;;1.10;1.10;;;16.00;99.90;;;;;;5056149;28;20251;-83
2022/07/12 02:35:05;;;;;;;1.50;1.40;;;16.00;99.90;;;;;;5056222;28;20242;-83
2022/07/12 02:37:33;;;;;;;1.42;1.33;;;16.00;99.90;;;;;;5056083;28;20201;-83
2022/07/12 02:42:43;;;;;;;1.52;1.33;;;15.90;99.90;;;;;;5055714;28;20267;-83
2022/07/12 02:45:12;;;;;;;1.50;1.27;;;15.90;99.90;;;;;;5055635;28;20209;-83
2022/07/12 02:47:41;;;;;;;1.10;1.10;;;15.90;99.90;;;;;;5055957;28;20231;-83
2022/07/12 02:50:10;;;;;;;1.17;1.08;;;15.90;99.90;;;;;;5055403;28;20230;-83
2022/07/12 02:52:38;;;;;;;1.00;1.00;;;15.90;99.90;;;;;;5055564;28;20210;-83
2022/07/12 02:55:07;;;;;;;1.02;1.02;;;15.90;99.90;;;;;;5055634;28;20255;-83
2022/07/12 02:57:35;;;;;;;1.20;1.20;;;15.90;99.90;;;;;;5055606;28;20209;-83
2022/07/12 03:00:06;;;;;;;1.90;1.45;;;15.90;99.90;;;;;;5055239;28;20220;-83
2022/07/12 03:02:34;;;;;;;0.98;0.98;;;15.90;99.90;;;;;;5055662;28;20248;-83
2022/07/12 03:05:08;;;;;;;3.97;2.08;;;15.90;99.90;;;;;;5055518;28;20221;-83
2022/07/12 03:07:37;;;;;;;1.00;1.00;;;15.90;99.90;;;;;;5055442;28;20259;-83
2022/07/12 03:10:06;;;;;;;1.98;1.65;;;15.90;99.90;;;;;;5055427;28;20317;-83
2022/07/12 03:12:35;;;;;;;1.27;1.27;;;15.90;99.90;;;;;;5055250;28;20230;-83
2022/07/12 03:15:04;;;;;;;1.20;1.20;;;15.90;99.90;;;;;;5055618;28;20210;-83
2022/07/12 03:17:32;;;;;;;1.50;1.40;;;15.90;99.90;;;;;;5055106;28;20300;-83
2022/07/12 03:20:01;;;;;;;1.25;1.20;;;15.90;99.90;;;;;;5054197;28;20202;-83
2022/07/12 03:22:33;;;;;;;10.73;1.50;;;15.90;99.90;;;;;;5054980;28;20229;-83
2022/07/12 03:25:02;;;;;;;0.93;0.93;;;15.90;99.90;;;;;;5055191;28;20236;-83
2022/07/12 03:27:31;;;;;;;1.38;1.27;;;15.90;99.90;;;;;;5055087;28;20206;-83
2022/07/12 03:30:01;;;;;;;1.38;1.27;;;15.90;99.90;;;;;;5055004;28;20209;-83
2022/07/12 03:32:30;;;;;;;1.17;1.15;;;16.00;99.90;;;;;;5054520;28;20279;-83
2022/07/12 03:34:58;;;;;;;1.67;1.58;;;16.00;99.90;;;;;;5054827;28;20259;-83
2022/07/12 03:37:26;;;;;;;2.25;1.45;;;15.90;99.90;;;;;;5054747;28;20297;-83
2022/07/12 03:39:56;;;;;;;1.15;1.15;;;16.00;99.90;;;;;;5054728;28;20229;-83
2022/07/12 03:42:24;;;;;;;1.50;1.40;;;16.00;99.90;;;;;;5054868;28;20256;-83
2022/07/12 03:44:53;;;;;;;6.60;1.75;;;16.00;99.90;;;;;;5054644;28;20230;-83
2022/07/12 03:47:21;;;;;;;1.50;1.40;;;16.00;99.90;;;;;;5054601;28;20229;-83
2022/07/12 03:49:49;;;;;;;1.98;1.67;;;16.10;99.90;;;;;;5054757;28;20205;-83
2022/07/12 03:52:17;;;;;;;1.40;1.30;;;16.10;99.90;;;;;;5054013;28;20271;-83
2022/07/12 03:54:46;;;;;;;1.92;1.75;;;16.10;99.90;;;;;;5054598;28;20253;-83
2022/07/12 03:57:16;;;;;;;2.67;1.63;;;16.20;99.90;;;;;;5054007;28;20232;-83
2022/07/12 03:59:45;;;;;;;1.50;1.40;;;16.20;99.90;;;;;;5054820;28;20198;-83
2022/07/12 04:02:14;;;;;;;1.48;1.38;;;16.20;99.90;;;;;;5053881;28;20210;-83
2022/07/12 04:04:42;;;;;;;1.27;1.25;;;16.30;99.90;;;;;;5054350;28;20222;-83
2022/07/12 04:07:11;;;;;;;1.65;1.55;;;16.30;99.90;;;;;;5054372;28;20215;-83
2022/07/12 04:09:39;;;;;;;1.95;1.35;;;16.40;99.90;;;;;;5054621;28;20206;-83
2022/07/12 04:12:08;;;;;;;1.42;1.33;;;16.40;99.90;;;;;;5053708;28;20276;-83
2022/07/12 04:14:38;;;;;;;1.27;1.20;;;16.40;99.90;;;;;;5054028;28;20249;-83
2022/07/12 04:17:06;;;;;;;1.42;1.33;;;16.40;99.90;;;;;;5054096;28;20217;-83
2022/07/12 04:19:34;;;;;;;2.25;1.70;;;16.30;99.90;;;;;;5053953;28;20277;-83
2022/07/12 04:22:03;;;;;;;1.15;1.15;;;16.30;99.90;;;;;;5054159;28;20290;-82
2022/07/12 04:24:32;;;;;;;1.10;1.10;;;16.30;99.90;;;;;;5053944;28;20229;-83
2022/07/12 04:27:01;;;;;;;1.63;1.52;;;16.30;99.90;;;;;;5054146;28;20234;-83
2022/07/12 04:29:29;;;;;;;1.50;1.40;;;16.30;99.90;;;;;;5053855;28;20205;-83
2022/07/12 04:31:59;;;;;;;1.60;1.50;;;16.40;99.90;;;;;;5053026;28;20246;-83
2022/07/12 04:34:27;;;;;;;3.15;1.70;;;16.40;99.90;;;;;;5053674;28;20321;-83
2022/07/12 04:36:55;;;;;;;2.67;1.75;;;16.40;99.90;;;;;;5053640;28;20206;-83
2022/07/12 04:39:24;;;;;;;1.95;1.77;;;16.40;99.90;;;;;;5053571;28;20256;-83
2022/07/12 04:41:52;;;;;;;1.23;1.20;;;16.40;99.90;;;;;;5053375;28;20293;-83
2022/07/12 04:44:20;;;;;;;1.30;1.20;;;16.50;99.90;;;;;;5053356;28;20326;-83
2022/07/12 04:46:49;;;;;;;2.45;1.40;;;16.50;99.90;;;;;;5053391;28;20297;-83
2022/07/12 04:49:19;;;;;;;1.60;1.50;;;16.50;99.90;;;;;;5053553;28;20205;-83
2022/07/12 04:51:47;;;;;;;1.85;1.63;;;16.50;99.90;;;;;;5053102;28;20248;-83
2022/07/12 04:54:15;;;;;;;1.73;1.58;;;16.60;99.90;;;;;;5053266;28;20253;-83
2022/07/12 04:56:44;;;;;;;1.70;1.55;;;16.60;99.90;;;;;;5053032;28;20210;-85
2022/07/12 04:59:12;;;;;;;2.65;1.33;;;16.60;99.90;;;;;;5053118;28;20236;-83
2022/07/12 05:01:41;;;;;;;1.58;1.48;;;16.50;99.90;;;;;;5052940;28;20225;-83
2022/07/12 05:04:09;;;;;;;1.60;1.50;;;16.60;99.90;;;;;;5053414;28;20226;-83
2022/07/12 05:06:39;;;;;;;1.27;1.23;;;16.60;99.90;;;;;;5053288;28;20216;-83
2022/07/12 05:09:07;;;;;;;3.95;2.17;;;16.60;99.90;;;;;;5053171;28;20298;-83
2022/07/12 05:11:36;;;;;;;1.33;1.23;;;16.70;99.90;;;;;;5052993;28;20221;-83
2022/07/12 05:14:04;;;;;;;1.38;1.30;;;16.80;99.90;;;;;;5053284;28;20304;-83
2022/07/12 05:16:33;;;;;;;1.92;1.60;;;16.80;99.90;;;;;;5053541;28;20218;-83
2022/07/12 05:19:02;;;;;;;1.80;1.67;;;16.80;99.90;;;;;;5052940;28;20231;-83
2022/07/12 05:21:30;;;;;;;1.50;1.40;;;16.90;99.90;;;;;;5052692;28;20230;-83
2022/07/12 05:24:00;;;;;;;2.10;1.73;;;17.00;99.90;;;;;;5052710;28;20226;-83
2022/07/12 05:26:28;;;;;;;1.42;1.23;;;17.10;99.90;;;;;;5053007;28;20209;-83
2022/07/12 05:28:57;;;;;;;2.15;1.58;;;17.10;99.90;;;;;;5052927;28;20233;-83
2022/07/12 05:31:25;;;;;;;1.73;1.55;;;17.20;99.90;;;;;;5052899;28;20222;-83
2022/07/12 05:33:53;;;;;;;1.42;1.15;;;17.20;99.90;;;;;;5052918;28;20217;-83
2022/07/12 05:36:22;;;;;;;4.57;1.35;;;17.30;99.90;;;;;;5052659;28;20202;-83
2022/07/12 05:38:51;;;;;;;2.20;1.52;;;17.40;99.90;;;;;;5052831;28;20263;-83
2022/07/12 05:41:20;;;;;;;1.40;1.30;;;17.50;99.90;;;;;;5052851;28;20240;-83
2022/07/12 05:43:49;;;;;;;1.08;1.08;;;17.60;99.90;;;;;;5052220;28;20252;-83
2022/07/12 05:46:17;;;;;;;1.45;1.35;;;17.70;99.90;;;;;;5052633;28;20247;-83
2022/07/12 05:48:45;;;;;;;1.00;1.00;;;17.80;99.90;;;;;;5052471;28;20202;-83
2022/07/12 05:53:59;;;;;;;1.55;1.45;;;18.00;99.90;;;;;;5052496;28;20299;-83
2022/07/12 05:56:29;;;;;;;1.63;1.30;;;18.00;99.90;;;;;;5052721;28;20209;-83
2022/07/12 05:58:57;;;;;;;1.98;1.33;;;18.10;99.90;;;;;;5052312;28;20236;-83
2022/07/12 06:01:26;;;;;;;1.27;1.17;;;18.10;99.90;;;;;;5051936;28;20236;-83
2022/07/12 06:03:54;;;;;;;1.17;1.05;;;18.20;99.90;;;;;;5052303;28;20256;-83
2022/07/12 06:06:22;;;;;;;5.53;1.63;;;18.20;99.90;;;;;;5052651;28;20236;-83
2022/07/12 06:08:51;;;;;;;2.25;1.33;;;18.20;99.90;;;;;;5052678;28;20231;-83
2022/07/12 06:11:19;;;;;;;1.20;1.10;;;18.30;99.90;;;;;;5051995;28;20236;-83
2022/07/12 06:13:50;;;;;;;1.63;0.93;;;18.30;99.90;;;;;;5052601;28;20230;-83
2022/07/12 06:16:18;;;;;;;1.08;1.02;;;18.30;99.90;;;;;;5052635;28;20209;-83
2022/07/12 06:18:47;;;;;;;1.70;1.30;;;18.30;99.90;;;;;;5052588;28;20231;-83
2022/07/12 06:21:15;;;;;;;1.40;1.30;;;18.50;99.90;;;;;;5052457;28;20206;-83
2022/07/12 06:23:43;;;;;;;1.08;0.98;;;18.50;99.90;;;;;;5052290;28;20275;-83
2022/07/12 06:26:12;;;;;;;1.25;1.17;;;18.60;99.90;;;;;;5051976;28;20206;-83
2022/07/12 06:28:41;;;;;;;0.70;0.70;;;18.70;99.90;;;;;;5052208;28;20226;-82
2022/07/12 06:31:10;;;;;;;5.28;1.23;;;18.90;99.90;;;;;;5052047;28;20241;-83
2022/07/12 06:33:39;;;;;;;1.17;1.05;;;18.90;99.90;;;;;;5051800;28;20233;-83
2022/07/12 06:36:07;;;;;;;1.38;1.25;;;19.00;99.90;;;;;;5052493;28;20241;-83
2022/07/12 06:38:35;;;;;;;1.20;1.10;;;19.20;99.90;;;;;;5052334;28;20232;-83
2022/07/12 06:41:13;;;;;;;2.85;0.98;;;19.30;99.90;;;;;;5052043;28;20201;-83
2022/07/12 06:43:41;;;;;;;1.08;0.98;;;19.50;99.90;;;;;;5052039;28;20285;-83
2022/07/12 06:46:11;;;;;;;3.10;1.38;;;19.60;99.90;;;;;;5052056;28;20236;-83
2022/07/12 06:48:39;;;;;;;2.20;1.10;;;19.80;99.90;;;;;;5052004;28;20210;-83
2022/07/12 06:51:08;;;;;;;0.77;0.77;;;19.90;99.90;;;;;;5051920;28;20201;-83
2022/07/12 06:53:36;;;;;;;1.30;1.20;;;20.10;99.90;;;;;;5051797;28;20308;-83
2022/07/12 06:56:05;;;;;;;1.63;1.33;;;20.30;99.90;;;;;;5054943;28;20241;-83
2022/07/12 06:58:33;;;;;;;0.93;0.93;;;20.40;99.90;;;;;;5055586;28;20284;-83
2022/07/12 07:01:02;;;;;;;1.08;0.88;;;20.60;99.90;;;;;;5055076;28;20202;-83
2022/07/12 07:03:31;;;;;;;1.30;1.20;;;20.80;99.90;;;;;;5055866;28;20232;-83
2022/07/12 07:06:00;;;;;;;0.93;0.93;;;21.00;99.90;;;;;;5055734;28;20244;-83
2022/07/12 07:08:31;;;;;;;1.75;1.23;;;21.10;99.90;;;;;;5055601;28;20214;-83
2022/07/12 07:10:59;;;;;;;1.10;1.10;;;21.30;99.90;;;;;;5055282;28;20201;-83
2022/07/12 07:13:27;;;;;;;1.27;1.10;;;21.60;99.80;;;;;;5055045;28;20253;-83
2022/07/12 07:15:56;;;;;;;0.80;0.80;;;21.60;99.40;;;;;;5055450;28;20210;-83
2022/07/12 07:18:24;;;;;;;1.20;1.05;;;21.50;99.10;;;;;;5055358;28;20206;-83
2022/07/12 07:20:54;;;;;;;1.00;1.00;;;21.50;99.00;;;;;;5054896;28;20202;-83
2022/07/12 07:23:22;;;;;;;0.80;0.80;;;21.70;98.50;;;;;;5055045;28;20217;-83
2022/07/12 07:25:51;;;;;;;1.02;0.95;;;21.90;97.60;;;;;;5054895;28;20197;-83
2022/07/12 07:28:19;;;;;;;1.15;1.15;;;22.40;97.70;;;;;;5055175;28;20206;-83
2022/07/12 07:31:06;;;;;;;1.65;1.20;;;22.80;97.60;;;;;;5055100;28;20202;-83
2022/07/12 07:33:35;;;;;;;1.17;1.10;;;23.40;97.00;;;;;;5054870;28;20225;-83
2022/07/12 07:36:05;;;;;;;3.15;1.27;;;24.00;96.40;;;;;;5054876;28;20201;-83
2022/07/12 07:38:33;;;;;;;0.90;0.90;;;24.70;95.00;;;;;;5054509;28;20202;-83
2022/07/12 07:41:02;;;;;;;1.60;1.33;;;;;;;;;;5054943;28;20224;-83
2022/07/12 07:43:30;;;;;;;0.90;0.90;;;;;;;;;;5054701;28;20221;-83
2022/07/12 07:45:59;;;;;;;1.30;1.20;;;25.50;94.00;;;;;;5054659;28;20210;-83
2022/07/12 07:48:27;;;;;;;1.17;1.10;;;26.60;90.50;;;;;;5054745;28;20210;-83
2022/07/12 07:50:56;;;;;;;1.23;1.13;;;26.50;88.40;;;;;;5054021;28;20231;-83
2022/07/12 07:53:26;;;;;;;2.13;1.05;;;26.70;88.00;;;;;;5054286;28;20226;-83
2022/07/12 07:55:55;;;;;;;1.30;1.20;;;27.00;86.00;;;;;;5054645;28;20236;-83
2022/07/12 07:58:23;;;;;;;1.58;0.95;;;26.90;85.50;;;;;;5054344;28;20237;-83
2022/07/12 08:00:52;;;;;;;1.00;0.98;;;27.20;85.50;;;;;;5053739;28;20232;-83
2022/07/12 08:03:21;;;;;;;1.25;1.13;;;27.40;84.00;;;;;;5054424;28;20245;-83
2022/07/12 08:05:50;;;;;;;0.85;0.85;;;27.80;81.70;;;;;;5053792;28;20272;-83
2022/07/12 08:08:19;;;;;;;1.27;1.17;;;27.90;81.30;;;;;;5054383;28;20242;-83
2022/07/12 08:10:50;;;;;;;1.70;1.60;;;28.60;78.80;;;;;;5054014;28;20236;-83
2022/07/12 08:13:18;;;;;;;1.77;0.95;;;29.30;76.40;;;;;;5054324;28;20256;-83
2022/07/12 08:15:46;;;;;;;1.05;0.95;;;29.50;74.00;;;;;;5054022;28;20206;-83
2022/07/12 08:18:15;;;;;;;0.98;0.98;;;28.30;73.40;;;;;;5053962;28;20209;-83
2022/07/12 08:20:43;;;;;;;1.05;0.93;;;28.60;73.60;;;;;;5053912;28;20209;-83
2022/07/12 08:23:14;;;;;;;2.35;1.02;;;29.50;71.20;;;;;;5053925;28;20309;-83
2022/07/12 08:25:42;;;;;;;1.00;1.00;;;30.50;69.60;;;;;;5053867;28;20239;-83
2022/07/12 08:28:12;;;;;;;1.38;1.00;;;31.30;67.00;;;;;;5054128;28;20235;-83
2022/07/12 08:30:40;;;;;;;1.20;1.10;;;31.90;64.50;;;;;;5053772;28;20240;-83
2022/07/12 08:33:14;;;;;;;1.02;0.95;;;32.50;63.90;;;;;;5053824;28;20308;-83
2022/07/12 08:35:42;;;;;;;3.15;1.10;;;32.40;62.70;;;;;;5053763;28;20263;-83
2022/07/12 08:38:11;;;;;;;1.20;0.77;;;31.80;63.70;;;;;;5053584;28;20209;-83
2022/07/12 08:40:40;;;;;;;0.88;0.88;;;31.50;64.00;;;;;;5053386;28;20232;-83
2022/07/12 08:43:08;;;;;;;0.90;0.90;;;32.30;62.00;;;;;;5053415;28;20304;-84
2022/07/12 08:45:40;;;;;;;1.30;1.23;;;31.60;59.40;;;;;;5053974;28;20270;-83
2022/07/12 08:48:09;;;;;;;0.90;0.90;;;30.80;60.90;;;;;;5053571;28;20213;-84
2022/07/12 08:50:37;;;;;;;1.17;1.08;;;30.30;60.20;;;;;;5053454;28;20255;-84
2022/07/12 08:53:13;;;;;;;0.90;0.90;;;29.40;62.60;;;;;;5053162;28;20251;-84
2022/07/12 08:55:41;;;;;;;1.08;0.95;;;30.70;64.10;;;;;;5053513;28;20255;-84
2022/07/12 08:58:18;;;;;;;1.20;1.10;;;32.10;59.30;;;;;;5053574;28;20213;-83
2022/07/12 09:00:48;;;;;;;2.03;1.00;;;33.40;58.60;;;;;;5053025;28;20209;-83
2022/07/12 09:03:19;;;;;;;2.88;1.50;;;34.40;56.70;;;;;;5053054;28;20291;-84
2022/07/12 09:05:52;;;;;;;0.88;0.88;;;34.80;54.10;;;;;;5053545;28;20259;-84
2022/07/12 09:08:27;;;;;;;1.00;1.00;;;34.40;55.40;;;;;;5053340;28;20213;-84
2022/07/12 09:10:59;;;;;;;2.42;1.10;;;32.30;53.50;;;;;;5053046;28;20208;-84
2022/07/12 09:13:48;;;;;;;1.30;1.20;;;31.80;55.30;;;;;;5052953;28;20324;-84
2022/07/12 09:16:19;;;;;;;3.72;1.40;;;31.20;56.80;;;;;;5053144;28;20228;-83
2022/07/12 09:19:13;;;;;;;0.90;0.90;;;30.40;58.80;;;;;;5052436;28;20210;-83
2022/07/12 09:21:49;;;;;;;1.20;1.10;;;29.90;59.20;;;;;;5044924;28;20297;-83
2022/07/12 09:24:18;;;;;;;1.40;1.30;;;29.40;60.30;;;;;;5052955;28;20221;-83
2022/07/12 09:26:47;;;;;;;1.08;1.08;;;28.90;61.10;;;;;;5052675;28;20233;-84
2022/07/12 09:29:18;;;;;;;1.30;1.23;;;28.60;61.00;;;;;;5052818;28;20213;-84
2022/07/12 09:37:27;;;;;;;1.50;1.05;;;29.70;60.40;;;;;;5052946;28;20210;-83
2022/07/12 09:39:56;;;;;;;2.17;1.27;;;29.70;57.90;;;;;;5052623;28;20226;-84
2022/07/12 09:42:26;;;;;;;1.30;1.20;;;29.30;57.60;;;;;;5052601;28;20202;-84
2022/07/12 09:44:57;;;;;;;1.20;1.10;;;29.00;57.90;;;;;;5052453;28;20226;-84
2022/07/12 09:47:27;;;;;;;2.58;1.30;;;28.30;59.00;;;;;;5052858;28;20216;-83
2022/07/12 09:49:56;;;;;;;1.15;1.10;;;27.70;59.20;;;;;;5052574;28;20206;-84
2022/07/12 09:52:26;;;;;;;1.10;1.10;;;27.20;61.30;;;;;;5052417;28;20217;-84
2022/07/12 09:54:56;;;;;;;0.90;0.90;;;26.70;61.00;;;;;;5052382;28;20287;-84
2022/07/12 09:57:28;;;;;;;1.58;1.48;;;26.40;62.80;;;;;;5052728;28;20244;-84
2022/07/12 09:59:58;;;;;;;2.45;1.70;;;25.90;61.80;;;;;;5052490;28;20213;-83
2022/07/12 10:02:28;;;;;;;1.10;1.10;;;26.00;62.70;;;;;;5052094;28;20197;-83
2022/07/12 10:05:00;;;;;;;1.48;1.38;;;26.30;63.10;;;;;;5052313;28;20241;-83
2022/07/12 10:07:29;;;;;;;1.40;1.30;;;26.70;61.60;;;;;;5052485;28;20233;-83
2022/07/12 10:09:58;;;;;;;3.83;1.40;;;27.60;61.70;;;;;;5052515;28;20221;-84
2022/07/12 10:12:27;;;;;;;2.45;1.30;;;28.10;58.80;;;;;;5052423;28;20206;-83
2022/07/12 10:15:01;;;;;;;2.53;1.48;;;28.00;58.00;;;;;;5052300;28;20287;-83
2022/07/12 10:17:33;;;;;;;2.78;1.60;;;27.50;58.60;;;;;;5052304;28;20252;-84
2022/07/12 10:20:19;;;;;;;1.35;1.30;;;27.30;60.10;;;;;;5052173;28;20206;-83
2022/07/12 10:22:47;;;;;;;1.45;1.35;;;26.90;59.20;;;;;;5052582;28;20279;-83
2022/07/12 10:25:32;;;;;;;1.08;1.08;;;27.00;59.60;;;;;;5052349;28;20285;-84
2022/07/12 10:28:00;;;;;;;4.10;1.35;;;27.40;62.00;;;;;;5052430;28;20206;-83
2022/07/12 10:30:29;;;;;;;1.20;1.10;;;27.80;59.10;;;;;;5055901;28;20205;-83
2022/07/12 10:33:00;;;;;;;1.50;1.40;;;28.20;60.30;;;;;;5056220;28;20226;-83
2022/07/12 10:35:30;;;;;;;0.80;0.80;;;28.50;58.00;;;;;;5055817;28;20225;-84
2022/07/12 10:38:18;;;;;;;2.05;1.38;;;28.90;56.80;;;;;;5055684;28;20206;-83
2022/07/12 10:40:51;;;;;;;1.45;1.13;;;29.10;57.00;;;;;;5055725;28;20255;-84
2022/07/12 10:46:22;;;;;;;1.88;1.02;;;28.60;56.40;;;;;;5055696;28;20209;-83
2022/07/12 10:49:13;;;;;;;0.85;0.85;;;28.00;56.60;;;;;;5055618;28;20209;-83
2022/07/12 10:51:41;;;;;;;1.42;1.23;;;27.90;57.30;;;;;;5055924;28;20206;-83
2022/07/12 10:54:23;;;;;;;1.48;1.20;;;28.00;57.40;;;;;;5055462;28;20267;-83
2022/07/12 10:56:57;;;;;;;1.27;1.15;;;27.60;56.50;;;;;;5055864;28;20293;-83
2022/07/12 10:59:28;;;;;;;1.05;0.98;;;27.40;58.20;;;;;;5055852;28;20275;-83
2022/07/12 11:01:57;;;;;;;0.93;0.93;;;26.90;57.20;;;;;;5055102;28;20206;-83
2022/07/12 11:04:34;;;;;;;2.08;1.00;;;26.60;58.40;;;;;;5055467;28;20279;-83
2022/07/12 11:07:03;;;;;;;2.05;1.20;;;26.50;59.30;;;;;;5055580;28;20223;-83
2022/07/12 11:09:32;;;;;;;1.40;1.30;;;26.20;60.20;;;;;;5055254;28;20206;-83
2022/07/12 11:12:01;;;;;;;1.15;1.10;;;26.00;60.10;;;;;;5055109;28;20248;-83
2022/07/12 11:14:32;;;;;;;1.27;1.17;;;25.20;60.50;;;;;;5054673;28;20225;-83
2022/07/12 11:17:01;;;;;;;1.13;0.93;;;24.80;60.70;;;;;;5055006;28;20282;-83
2022/07/12 11:19:30;;;;;;;0.85;0.85;;;24.30;61.20;;;;;;5054810;28;20210;-83
2022/07/12 11:22:00;;;;;;;1.23;1.08;;;24.10;62.80;;;;;;5054869;28;20260;-83
2022/07/12 11:24:30;;;;;;;1.80;1.20;;;24.00;63.00;;;;;;5055490;28;20248;-84
2022/07/12 11:27:00;;;;;;;1.35;1.15;;;24.00;64.20;;;;;;5055174;28;20283;-83
2022/07/12 11:29:28;;;;;;;1.30;1.20;;;23.90;63.50;;;;;;5054800;28;20232;-83
2022/07/12 11:32:03;;;;;;;1.73;1.23;;;23.70;64.00;;;;;;5054577;28;20209;-83
2022/07/12 11:34:38;;;;;;;1.80;1.42;;;23.60;64.20;;;;;;5054321;28;20222;-83
2022/07/12 11:37:08;;;;;;;1.48;1.38;;;23.50;64.60;;;;;;5055044;28;20217;-83
2022/07/12 11:39:37;;;;;;;1.48;1.30;;;23.30;64.80;;;;;;5054458;28;20244;-83
2022/07/12 11:42:07;;;;;;;1.48;1.38;;;23.30;65.50;;;;;;5054208;28;20247;-83
2022/07/12 11:44:46;;;;;;;2.13;1.10;;;23.30;65.70;;;;;;5054674;28;20272;-83
2022/07/12 11:47:15;;;;;;;1.38;1.25;;;23.20;65.10;;;;;;5054150;28;20224;-83
2022/07/12 11:49:45;;;;;;;1.20;1.10;;;23.20;66.10;;;;;;5054654;28;20213;-83
2022/07/12 11:52:17;;;;;;;1.65;1.10;;;23.30;65.50;;;;;;5054528;28;20217;-83
2022/07/12 11:54:46;;;;;;;1.55;1.40;;;23.40;65.70;;;;;;5054309;28;20222;-83
2022/07/12 11:57:16;;;;;;;1.30;1.20;;;23.60;65.60;;;;;;5054107;28;20210;-83
2022/07/12 11:59:44;;;;;;;1.30;1.20;;;24.00;65.30;;;;;;5054328;28;20292;-83
2022/07/12 12:02:15;;;;;;;1.73;1.33;;;24.50;64.00;;;;;;5053901;28;20251;-83
2022/07/12 12:04:47;;;;;;;1.20;1.13;;;24.90;65.40;;;;;;5054420;28;20301;-83
2022/07/12 12:07:18;;;;;;;1.33;1.00;;;25.40;63.70;;;;;;5054300;28;20214;-83
2022/07/12 12:09:59;;;;;;;1.58;1.30;;;25.80;61.30;;;;;;5054347;28;20205;-83
2022/07/12 12:12:28;;;;;;;2.92;1.17;;;25.70;60.30;;;;;;5053772;28;20205;-83
2022/07/12 12:14:57;;;;;;;1.13;1.02;;;25.70;61.40;;;;;;5053882;28;20229;-83
2022/07/12 12:17:25;;;;;;;1.38;1.27;;;25.70;62.10;;;;;;5054061;28;20292;-83
2022/07/12 12:19:54;;;;;;;1.45;1.35;;;25.20;61.60;;;;;;5054235;28;20383;-83
2022/07/12 12:22:33;;;;;;;2.72;1.25;;;24.50;61.50;;;;;;5053606;28;20241;-83
2022/07/12 12:25:04;;;;;;;3.50;1.30;;;24.20;63.10;;;;;;5053762;28;20283;-83
2022/07/12 12:27:34;;;;;;;0.95;0.90;;;24.10;64.80;;;;;;5053835;28;20210;-83
2022/07/12 12:30:23;;;;;;;1.45;1.35;;;24.00;64.70;;;;;;5053548;28;20214;-83
2022/07/12 12:32:53;;;;;;;1.80;1.33;;;23.90;65.40;;;;;;5053478;28;20241;-83
2022/07/12 12:35:23;;;;;;;2.55;1.77;;;23.80;65.50;;;;;;5053770;28;20226;-83
2022/07/12 12:37:58;;;;;;;1.80;1.70;;;23.70;64.70;;;;;;5053580;28;20229;-83
2022/07/12 12:40:28;;;;;;;1.55;1.45;;;23.60;64.50;;;;;;5053283;28;20205;-83
2022/07/12 12:43:07;;;;;;;2.85;1.80;;;23.50;65.10;;;;;;5053154;28;20222;-83
2022/07/12 12:45:36;;;;;;;1.98;1.25;;;23.50;65.60;;;;;;5053871;28;20201;-83
2022/07/12 12:48:06;;;;;;;3.33;1.60;;;23.40;65.60;;;;;;5053538;28;20229;-83
2022/07/12 12:50:42;;;;;;;1.05;1.05;;;23.40;65.40;;;;;;5053388;28;20217;-83
2022/07/12 12:53:17;;;;;;;1.30;1.20;;;23.60;65.70;;;;;;5052863;28;20245;-83
2022/07/12 12:55:47;;;;;;;1.58;1.27;;;23.80;65.60;;;;;;5053032;28;20221;-83
2022/07/12 12:58:18;;;;;;;1.75;1.60;;;23.90;64.60;;;;;;5053483;28;20217;-83
2022/07/12 13:00:52;;;;;;;1.35;1.25;;;24.10;64.80;;;;;;5052978;28;20259;-83
2022/07/12 13:03:24;;;;;;;1.92;1.38;;;24.40;65.50;;;;;;5053034;28;20255;-83
2022/07/12 13:05:52;;;;;;;1.50;1.40;;;24.50;64.00;;;;;;5052971;28;20202;-83
2022/07/12 13:08:22;;;;;;;1.45;1.30;;;24.50;63.30;;;;;;5053247;28;20206;-83
2022/07/12 13:11:18;;;;;;;1.45;1.38;;;24.60;63.70;;;;;;5053062;28;20206;-83
2022/07/12 13:13:41;;;;;;;1.33;1.10;;;24.60;63.30;;;;;;5052872;28;20234;-83
2022/07/12 13:16:09;;;;;;;1.58;1.40;;;24.70;62.90;;;;;;5052712;28;20245;-83